sensor_id;sensor_type;location;lat;lon;timestamp;temperature;humidity
29939;DHT22;16799;50.844;5.304;2023-02-07T00:00:43;1.80;99.90
29939;DHT22;16799;50.844;5.304;2023-02-07T00:03:09;1.80;99.90
29939;DHT22;16799;50.844;5.304;2023-02-07T00:05:35;1.70;99.90
29939;DHT22;16799;50.844;5.304;2023-02-07T00:08:03;1.50;99.90
29939;DHT22;16799;50.844;5.304;2023-02-07T00:10:29;1.40;99.90
29939;DHT22;16799;50.844;5.304;2023-02-07T00:12:55;1.20;99.90
29939;DHT22;16799;50.844;5.304;2023-02-07T00:15:20;1.00;99.90
29939;DHT22;16799;50.844;5.304;2023-02-07T00:17:46;1.00;99.90
29939;DHT22;16799;50.844;5.304;2023-02-07T00:20:12;1.00;99.90
29939;DHT22;16799;50.844;5.304;2023-02-07T00:22:37;0.90;99.90
29939;DHT22;16799;50.844;5.304;2023-02-07T00:25:03;1.00;99.90
29939;DHT22;16799;50.844;5.304;2023-02-07T00:27:29;1.00;99.90
29939;DHT22;16799;50.844;5.304;2023-02-07T00:29:55;1.10;99.90
29939;DHT22;16799;50.844;5.304;2023-02-07T00:32:20;1.20;99.90
29939;DHT22;16799;50.844;5.304;2023-02-07T00:34:47;1.20;99.90
29939;DHT22;16799;50.844;5.304;2023-02-07T00:37:15;1.20;99.90
29939;DHT22;16799;50.844;5.304;2023-02-07T00:39:41;1.00;99.90
29939;DHT22;16799;50.844;5.304;2023-02-07T00:42:07;0.80;99.90
29939;DHT22;16799;50.844;5.304;2023-02-07T00:44:32;0.80;99.90
29939;DHT22;16799;50.844;5.304;2023-02-07T00:46:58;0.70;99.90
29939;DHT22;16799;50.844;5.304;2023-02-07T00:49:24;0.70;99.90
29939;DHT22;16799;50.844;5.304;2023-02-07T00:51:50;0.80;99.90
29939;DHT22;16799;50.844;5.304;2023-02-07T00:54:16;0.80;99.90
29939;DHT22;16799;50.844;5.304;2023-02-07T00:56:42;0.60;99.90
29939;DHT22;16799;50.844;5.304;2023-02-07T00:59:07;0.50;99.90
29939;DHT22;16799;50.844;5.304;2023-02-07T01:01:33;0.40;99.90
29939;DHT22;16799;50.844;5.304;2023-02-07T01:03:59;0.40;99.90
29939;DHT22;16799;50.844;5.304;2023-02-07T01:06:26;0.40;99.90
29939;DHT22;16799;50.844;5.304;2023-02-07T01:08:57;0.50;99.90
29939;DHT22;16799;50.844;5.304;2023-02-07T01:11:23;0.50;99.90
29939;DHT22;16799;50.844;5.304;2023-02-07T01:13:49;0.50;99.90
29939;DHT22;16799;50.844;5.304;2023-02-07T01:16:23;0.50;99.90
29939;DHT22;16799;50.844;5.304;2023-02-07T01:18:49;0.50;99.90
29939;DHT22;16799;50.844;5.304;2023-02-07T01:21:16;0.50;99.90
29939;DHT22;16799;50.844;5.304;2023-02-07T01:23:42;0.50;99.90
29939;DHT22;16799;50.844;5.304;2023-02-07T01:26:08;0.50;99.90
29939;DHT22;16799;50.844;5.304;2023-02-07T01:28:34;0.50;99.90
29939;DHT22;16799;50.844;5.304;2023-02-07T01:30:59;0.50;99.90
29939;DHT22;16799;50.844;5.304;2023-02-07T01:33:25;0.50;99.90
29939;DHT22;16799;50.844;5.304;2023-02-07T01:35:51;0.50;99.90
29939;DHT22;16799;50.844;5.304;2023-02-07T01:38:16;0.40;99.90
29939;DHT22;16799;50.844;5.304;2023-02-07T01:40:42;0.40;99.90
29939;DHT22;16799;50.844;5.304;2023-02-07T01:43:15;0.40;99.90
29939;DHT22;16799;50.844;5.304;2023-02-07T01:45:42;0.40;99.90
29939;DHT22;16799;50.844;5.304;2023-02-07T01:48:12;0.30;99.90
29939;DHT22;16799;50.844;5.304;2023-02-07T01:50:41;0.20;99.90
29939;DHT22;16799;50.844;5.304;2023-02-07T01:53:10;0.20;99.90
29939;DHT22;16799;50.844;5.304;2023-02-07T01:55:38;0.10;99.90
29939;DHT22;16799;50.844;5.304;2023-02-07T01:58:06;0.10;99.90
29939;DHT22;16799;50.844;5.304;2023-02-07T02:00:33;0.00;99.90
29939;DHT22;16799;50.844;5.304;2023-02-07T02:02:59;0.00;99.90
29939;DHT22;16799;50.844;5.304;2023-02-07T02:05:25;0.00;99.90
29939;DHT22;16799;50.844;5.304;2023-02-07T02:07:51;0.10;99.90
29939;DHT22;16799;50.844;5.304;2023-02-07T02:10:20;0.00;99.90
29939;DHT22;16799;50.844;5.304;2023-02-07T02:32:40;-0.30;99.90
29939;DHT22;16799;50.844;5.304;2023-02-07T02:35:43;-0.40;99.90
29939;DHT22;16799;50.844;5.304;2023-02-07T02:38:18;-0.40;99.90
29939;DHT22;16799;50.844;5.304;2023-02-07T02:41:04;-0.40;99.90
29939;DHT22;16799;50.844;5.304;2023-02-07T02:43:45;-0.50;99.90
29939;DHT22;16799;50.844;5.304;2023-02-07T02:48:41;-0.30;99.90
29939;DHT22;16799;50.844;5.304;2023-02-07T02:51:08;-0.40;99.90
29939;DHT22;16799;50.844;5.304;2023-02-07T02:53:34;-0.50;99.90
29939;DHT22;16799;50.844;5.304;2023-02-07T03:07:00;-0.60;99.90
29939;DHT22;16799;50.844;5.304;2023-02-07T03:12:31;-0.70;99.90
29939;DHT22;16799;50.844;5.304;2023-02-07T03:17:48;-0.90;99.90
29939;DHT22;16799;50.844;5.304;2023-02-07T03:20:38;-1.00;99.90
29939;DHT22;16799;50.844;5.304;2023-02-07T03:23:05;-1.00;99.90
29939;DHT22;16799;50.844;5.304;2023-02-07T03:25:34;-1.00;99.90
29939;DHT22;16799;50.844;5.304;2023-02-07T03:28:02;-0.90;99.90
29939;DHT22;16799;50.844;5.304;2023-02-07T03:30:32;-0.90;99.90
29939;DHT22;16799;50.844;5.304;2023-02-07T03:33:01;-0.90;99.90
29939;DHT22;16799;50.844;5.304;2023-02-07T03:38:10;-0.90;99.90
29939;DHT22;16799;50.844;5.304;2023-02-07T03:40:43;-0.90;99.90
29939;DHT22;16799;50.844;5.304;2023-02-07T03:43:21;-0.80;99.90
29939;DHT22;16799;50.844;5.304;2023-02-07T03:45:49;-0.80;99.90
29939;DHT22;16799;50.844;5.304;2023-02-07T03:48:15;-0.90;99.90
29939;DHT22;16799;50.844;5.304;2023-02-07T03:50:40;-0.90;99.90
29939;DHT22;16799;50.844;5.304;2023-02-07T03:53:07;-1.00;99.90
29939;DHT22;16799;50.844;5.304;2023-02-07T03:55:33;-1.10;99.90
29939;DHT22;16799;50.844;5.304;2023-02-07T03:57:59;-1.20;99.90
29939;DHT22;16799;50.844;5.304;2023-02-07T04:00:25;-1.20;99.90
29939;DHT22;16799;50.844;5.304;2023-02-07T04:02:51;-1.20;99.90
29939;DHT22;16799;50.844;5.304;2023-02-07T04:05:16;-1.20;99.90
29939;DHT22;16799;50.844;5.304;2023-02-07T04:07:42;-1.30;99.90
29939;DHT22;16799;50.844;5.304;2023-02-07T04:10:09;-1.30;99.90
29939;DHT22;16799;50.844;5.304;2023-02-07T04:12:35;-1.20;99.90
29939;DHT22;16799;50.844;5.304;2023-02-07T04:15:02;-1.20;99.90
29939;DHT22;16799;50.844;5.304;2023-02-07T04:17:29;-1.20;99.90
29939;DHT22;16799;50.844;5.304;2023-02-07T04:19:54;-1.30;99.90
29939;DHT22;16799;50.844;5.304;2023-02-07T04:22:20;-1.30;99.90
29939;DHT22;16799;50.844;5.304;2023-02-07T04:24:46;-1.30;99.90
29939;DHT22;16799;50.844;5.304;2023-02-07T04:27:12;-1.30;99.90
29939;DHT22;16799;50.844;5.304;2023-02-07T04:29:37;-1.30;99.90
29939;DHT22;16799;50.844;5.304;2023-02-07T04:32:03;-1.40;99.90
29939;DHT22;16799;50.844;5.304;2023-02-07T04:34:29;-1.40;99.90
29939;DHT22;16799;50.844;5.304;2023-02-07T04:36:54;-1.40;99.90
29939;DHT22;16799;50.844;5.304;2023-02-07T04:39:20;-1.40;99.90
29939;DHT22;16799;50.844;5.304;2023-02-07T04:41:46;-1.50;99.90
29939;DHT22;16799;50.844;5.304;2023-02-07T04:44:12;-1.50;99.90
29939;DHT22;16799;50.844;5.304;2023-02-07T04:46:37;-1.50;99.90
29939;DHT22;16799;50.844;5.304;2023-02-07T04:49:07;-1.50;99.90
29939;DHT22;16799;50.844;5.304;2023-02-07T04:51:32;-1.60;99.90
29939;DHT22;16799;50.844;5.304;2023-02-07T04:53:58;-1.60;99.90
29939;DHT22;16799;50.844;5.304;2023-02-07T04:56:24;-1.60;99.90
29939;DHT22;16799;50.844;5.304;2023-02-07T04:58:49;-1.60;99.90
29939;DHT22;16799;50.844;5.304;2023-02-07T05:01:15;-1.60;99.90
29939;DHT22;16799;50.844;5.304;2023-02-07T05:03:41;-1.50;99.90
29939;DHT22;16799;50.844;5.304;2023-02-07T05:06:07;-1.60;99.90
29939;DHT22;16799;50.844;5.304;2023-02-07T05:08:34;-1.70;99.90
29939;DHT22;16799;50.844;5.304;2023-02-07T05:11:00;-1.90;99.90
29939;DHT22;16799;50.844;5.304;2023-02-07T05:13:26;-2.10;99.90
29939;DHT22;16799;50.844;5.304;2023-02-07T05:15:51;-2.10;99.90
29939;DHT22;16799;50.844;5.304;2023-02-07T05:18:17;-2.10;99.90
29939;DHT22;16799;50.844;5.304;2023-02-07T05:20:43;-1.90;99.90
29939;DHT22;16799;50.844;5.304;2023-02-07T05:23:09;-1.90;99.90
29939;DHT22;16799;50.844;5.304;2023-02-07T05:25:35;-1.80;99.90
29939;DHT22;16799;50.844;5.304;2023-02-07T05:28:02;-1.80;99.90
29939;DHT22;16799;50.844;5.304;2023-02-07T05:30:27;-1.80;99.90
29939;DHT22;16799;50.844;5.304;2023-02-07T05:32:53;-1.70;99.90
29939;DHT22;16799;50.844;5.304;2023-02-07T05:35:32;-1.70;99.90
29939;DHT22;16799;50.844;5.304;2023-02-07T05:37:58;-1.70;99.90
29939;DHT22;16799;50.844;5.304;2023-02-07T05:40:24;-1.70;99.90
29939;DHT22;16799;50.844;5.304;2023-02-07T05:42:50;-1.80;99.90
29939;DHT22;16799;50.844;5.304;2023-02-07T05:45:16;-1.80;99.90
29939;DHT22;16799;50.844;5.304;2023-02-07T05:47:41;-1.70;99.90
29939;DHT22;16799;50.844;5.304;2023-02-07T05:50:07;-1.70;99.90
29939;DHT22;16799;50.844;5.304;2023-02-07T05:52:33;-1.70;99.90
29939;DHT22;16799;50.844;5.304;2023-02-07T05:54:59;-1.80;99.90
29939;DHT22;16799;50.844;5.304;2023-02-07T05:57:24;-1.70;99.90
29939;DHT22;16799;50.844;5.304;2023-02-07T05:59:50;-1.70;99.90
29939;DHT22;16799;50.844;5.304;2023-02-07T06:02:16;-1.90;99.90
29939;DHT22;16799;50.844;5.304;2023-02-07T06:04:41;-1.80;99.90
29939;DHT22;16799;50.844;5.304;2023-02-07T06:07:07;-1.80;99.90
29939;DHT22;16799;50.844;5.304;2023-02-07T06:09:33;-1.90;99.90
29939;DHT22;16799;50.844;5.304;2023-02-07T06:11:59;-2.00;99.90
29939;DHT22;16799;50.844;5.304;2023-02-07T06:14:24;-2.00;99.90
29939;DHT22;16799;50.844;5.304;2023-02-07T06:16:50;-2.10;99.90
29939;DHT22;16799;50.844;5.304;2023-02-07T06:19:16;-2.10;99.90
29939;DHT22;16799;50.844;5.304;2023-02-07T06:21:41;-2.10;99.90
29939;DHT22;16799;50.844;5.304;2023-02-07T06:24:07;-2.20;99.90
29939;DHT22;16799;50.844;5.304;2023-02-07T06:26:33;-2.30;99.90
29939;DHT22;16799;50.844;5.304;2023-02-07T06:28:59;-2.40;99.90
29939;DHT22;16799;50.844;5.304;2023-02-07T06:31:25;-2.50;99.90
29939;DHT22;16799;50.844;5.304;2023-02-07T06:33:51;-2.30;99.90
29939;DHT22;16799;50.844;5.304;2023-02-07T06:36:17;-2.30;99.90
29939;DHT22;16799;50.844;5.304;2023-02-07T06:38:43;-2.30;99.90
29939;DHT22;16799;50.844;5.304;2023-02-07T06:41:11;-2.20;99.90
29939;DHT22;16799;50.844;5.304;2023-02-07T06:43:37;-2.40;99.90
29939;DHT22;16799;50.844;5.304;2023-02-07T06:46:03;-2.20;99.90
29939;DHT22;16799;50.844;5.304;2023-02-07T06:48:29;-2.20;99.90
29939;DHT22;16799;50.844;5.304;2023-02-07T06:50:54;-2.20;99.90
29939;DHT22;16799;50.844;5.304;2023-02-07T06:53:20;-2.30;99.90
29939;DHT22;16799;50.844;5.304;2023-02-07T06:55:46;-2.20;99.90
29939;DHT22;16799;50.844;5.304;2023-02-07T06:58:11;-2.20;99.90
29939;DHT22;16799;50.844;5.304;2023-02-07T07:00:37;-2.20;99.90
29939;DHT22;16799;50.844;5.304;2023-02-07T07:03:03;-2.20;99.90
29939;DHT22;16799;50.844;5.304;2023-02-07T07:05:29;-2.20;99.90
29939;DHT22;16799;50.844;5.304;2023-02-07T07:07:55;-2.20;99.90
29939;DHT22;16799;50.844;5.304;2023-02-07T07:10:21;-2.30;99.90
29939;DHT22;16799;50.844;5.304;2023-02-07T07:12:47;-2.20;99.90
29939;DHT22;16799;50.844;5.304;2023-02-07T07:15:13;-2.20;99.90
29939;DHT22;16799;50.844;5.304;2023-02-07T07:17:39;-2.20;99.90
29939;DHT22;16799;50.844;5.304;2023-02-07T07:20:06;-2.20;99.90
29939;DHT22;16799;50.844;5.304;2023-02-07T07:22:34;-2.30;99.90
29939;DHT22;16799;50.844;5.304;2023-02-07T07:25:00;-2.30;99.90
29939;DHT22;16799;50.844;5.304;2023-02-07T07:27:26;-2.20;99.90
29939;DHT22;16799;50.844;5.304;2023-02-07T07:29:52;-2.00;99.90
29939;DHT22;16799;50.844;5.304;2023-02-07T07:32:18;-1.90;99.90
29939;DHT22;16799;50.844;5.304;2023-02-07T07:34:43;-2.00;99.90
29939;DHT22;16799;50.844;5.304;2023-02-07T07:37:11;-2.00;99.90
29939;DHT22;16799;50.844;5.304;2023-02-07T07:39:37;-2.00;99.90
29939;DHT22;16799;50.844;5.304;2023-02-07T07:42:03;-2.00;99.90
29939;DHT22;16799;50.844;5.304;2023-02-07T07:44:31;-1.90;99.90
29939;DHT22;16799;50.844;5.304;2023-02-07T07:46:57;-1.80;99.90
29939;DHT22;16799;50.844;5.304;2023-02-07T07:49:23;-1.90;99.90
29939;DHT22;16799;50.844;5.304;2023-02-07T07:51:48;-1.80;99.90
29939;DHT22;16799;50.844;5.304;2023-02-07T07:54:14;-1.80;99.90
29939;DHT22;16799;50.844;5.304;2023-02-07T07:56:40;-1.90;99.90
29939;DHT22;16799;50.844;5.304;2023-02-07T07:59:06;-1.80;99.90
29939;DHT22;16799;50.844;5.304;2023-02-07T08:01:32;-1.80;99.90
29939;DHT22;16799;50.844;5.304;2023-02-07T08:03:57;-1.70;99.90
29939;DHT22;16799;50.844;5.304;2023-02-07T08:06:23;-1.60;99.90
29939;DHT22;16799;50.844;5.304;2023-02-07T08:08:49;-1.50;99.90
29939;DHT22;16799;50.844;5.304;2023-02-07T08:11:14;-1.40;99.90
29939;DHT22;16799;50.844;5.304;2023-02-07T08:13:40;-1.30;99.90
29939;DHT22;16799;50.844;5.304;2023-02-07T08:16:06;-1.30;99.90
29939;DHT22;16799;50.844;5.304;2023-02-07T08:18:33;-1.10;99.90
29939;DHT22;16799;50.844;5.304;2023-02-07T08:20:59;-1.10;99.90
29939;DHT22;16799;50.844;5.304;2023-02-07T08:23:25;-1.00;99.90
29939;DHT22;16799;50.844;5.304;2023-02-07T08:25:54;-0.90;99.90
29939;DHT22;16799;50.844;5.304;2023-02-07T08:28:20;-0.70;99.90
29939;DHT22;16799;50.844;5.304;2023-02-07T08:30:46;-0.60;99.90
29939;DHT22;16799;50.844;5.304;2023-02-07T08:33:12;-0.50;99.90
29939;DHT22;16799;50.844;5.304;2023-02-07T08:35:38;-0.30;99.90
29939;DHT22;16799;50.844;5.304;2023-02-07T08:38:04;-0.20;99.90
29939;DHT22;16799;50.844;5.304;2023-02-07T08:40:30;0.10;99.90
29939;DHT22;16799;50.844;5.304;2023-02-07T08:42:55;0.40;99.90
29939;DHT22;16799;50.844;5.304;2023-02-07T08:45:21;0.50;99.90
29939;DHT22;16799;50.844;5.304;2023-02-07T08:47:50;0.50;99.90
29939;DHT22;16799;50.844;5.304;2023-02-07T08:50:16;0.60;99.90
29939;DHT22;16799;50.844;5.304;2023-02-07T08:52:42;0.70;99.90
29939;DHT22;16799;50.844;5.304;2023-02-07T08:55:08;0.80;99.90
29939;DHT22;16799;50.844;5.304;2023-02-07T08:57:34;0.90;99.90
29939;DHT22;16799;50.844;5.304;2023-02-07T09:00:00;0.90;99.90
29939;DHT22;16799;50.844;5.304;2023-02-07T09:02:26;1.00;99.90
29939;DHT22;16799;50.844;5.304;2023-02-07T09:04:52;1.10;99.90
29939;DHT22;16799;50.844;5.304;2023-02-07T09:07:18;1.30;99.90
29939;DHT22;16799;50.844;5.304;2023-02-07T09:09:44;1.50;99.90
29939;DHT22;16799;50.844;5.304;2023-02-07T09:12:11;1.60;99.90
29939;DHT22;16799;50.844;5.304;2023-02-07T09:14:37;1.70;99.90
29939;DHT22;16799;50.844;5.304;2023-02-07T09:17:04;1.60;99.90
29939;DHT22;16799;50.844;5.304;2023-02-07T09:19:30;1.70;99.90
29939;DHT22;16799;50.844;5.304;2023-02-07T09:21:56;1.90;99.90
29939;DHT22;16799;50.844;5.304;2023-02-07T09:24:22;2.00;99.90
29939;DHT22;16799;50.844;5.304;2023-02-07T09:26:48;2.00;99.90
29939;DHT22;16799;50.844;5.304;2023-02-07T09:29:14;2.10;99.90
29939;DHT22;16799;50.844;5.304;2023-02-07T09:31:40;2.10;99.90
29939;DHT22;16799;50.844;5.304;2023-02-07T09:34:06;2.30;99.90
29939;DHT22;16799;50.844;5.304;2023-02-07T09:36:33;2.50;99.90
29939;DHT22;16799;50.844;5.304;2023-02-07T09:38:59;2.60;99.90
29939;DHT22;16799;50.844;5.304;2023-02-07T09:47:06;2.80;99.90
29939;DHT22;16799;50.844;5.304;2023-02-07T09:49:46;3.00;99.90
29939;DHT22;16799;50.844;5.304;2023-02-07T09:52:49;3.00;99.90
29939;DHT22;16799;50.844;5.304;2023-02-07T09:57:46;3.30;99.90
29939;DHT22;16799;50.844;5.304;2023-02-07T10:03:10;3.70;99.90
29939;DHT22;16799;50.844;5.304;2023-02-07T10:06:02;3.90;99.90
29939;DHT22;16799;50.844;5.304;2023-02-07T10:08:28;4.10;99.90
29939;DHT22;16799;50.844;5.304;2023-02-07T10:22:39;7.20;99.90
29939;DHT22;16799;50.844;5.304;2023-02-07T10:31:08;9.60;97.40
29939;DHT22;16799;50.844;5.304;2023-02-07T10:33:38;10.00;92.60
29939;DHT22;16799;50.844;5.304;2023-02-07T10:36:14;10.50;91.80
29939;DHT22;16799;50.844;5.304;2023-02-07T10:39:04;11.00;90.40
29939;DHT22;16799;50.844;5.304;2023-02-07T10:41:39;10.70;86.90
29939;DHT22;16799;50.844;5.304;2023-02-07T10:44:10;10.80;88.00
29939;DHT22;16799;50.844;5.304;2023-02-07T10:46:37;11.40;85.60
29939;DHT22;16799;50.844;5.304;2023-02-07T10:49:05;12.30;84.80
29939;DHT22;16799;50.844;5.304;2023-02-07T10:51:37;13.30;81.10
29939;DHT22;16799;50.844;5.304;2023-02-07T10:54:08;13.20;76.90
29939;DHT22;16799;50.844;5.304;2023-02-07T10:56:40;13.60;77.20
29939;DHT22;16799;50.844;5.304;2023-02-07T11:01:58;15.10;73.00
29939;DHT22;16799;50.844;5.304;2023-02-07T11:04:44;15.20;71.50
29939;DHT22;16799;50.844;5.304;2023-02-07T11:07:14;16.00;69.60
29939;DHT22;16799;50.844;5.304;2023-02-07T11:09:39;16.30;65.90
29939;DHT22;16799;50.844;5.304;2023-02-07T11:12:24;16.30;67.50
29939;DHT22;16799;50.844;5.304;2023-02-07T11:15:15;17.00;63.50
29939;DHT22;16799;50.844;5.304;2023-02-07T11:17:47;16.10;57.60
29939;DHT22;16799;50.844;5.304;2023-02-07T11:20:31;16.40;58.60
29939;DHT22;16799;50.844;5.304;2023-02-07T11:22:58;16.10;59.20
29939;DHT22;16799;50.844;5.304;2023-02-07T11:25:34;16.80;60.00
29939;DHT22;16799;50.844;5.304;2023-02-07T11:28:00;17.30;59.70
29939;DHT22;16799;50.844;5.304;2023-02-07T11:30:27;17.20;56.20
29939;DHT22;16799;50.844;5.304;2023-02-07T11:32:58;17.70;56.90
29939;DHT22;16799;50.844;5.304;2023-02-07T11:35:25;18.50;55.30
29939;DHT22;16799;50.844;5.304;2023-02-07T11:38:00;18.00;53.90
29939;DHT22;16799;50.844;5.304;2023-02-07T11:40:30;17.90;53.40
29939;DHT22;16799;50.844;5.304;2023-02-07T11:45:42;17.60;55.00
29939;DHT22;16799;50.844;5.304;2023-02-07T11:48:23;18.30;55.00
29939;DHT22;16799;50.844;5.304;2023-02-07T11:50:55;19.50;53.70
29939;DHT22;16799;50.844;5.304;2023-02-07T11:53:37;19.10;51.70
29939;DHT22;16799;50.844;5.304;2023-02-07T11:56:04;19.40;50.10
29939;DHT22;16799;50.844;5.304;2023-02-07T11:58:41;19.40;51.10
29939;DHT22;16799;50.844;5.304;2023-02-07T12:01:18;19.10;50.20
29939;DHT22;16799;50.844;5.304;2023-02-07T12:03:51;19.20;49.10
29939;DHT22;16799;50.844;5.304;2023-02-07T12:06:23;20.10;50.80
29939;DHT22;16799;50.844;5.304;2023-02-07T12:08:54;21.10;49.20
29939;DHT22;16799;50.844;5.304;2023-02-07T12:11:23;21.60;47.00
29939;DHT22;16799;50.844;5.304;2023-02-07T12:14:23;21.40;47.30
29939;DHT22;16799;50.844;5.304;2023-02-07T12:16:54;21.40;44.50
29939;DHT22;16799;50.844;5.304;2023-02-07T12:19:33;21.60;44.90
29939;DHT22;16799;50.844;5.304;2023-02-07T12:22:04;20.90;43.70
29939;DHT22;16799;50.844;5.304;2023-02-07T12:24:39;20.90;44.20
29939;DHT22;16799;50.844;5.304;2023-02-07T12:38:11;21.50;42.00
29939;DHT22;16799;50.844;5.304;2023-02-07T12:40:59;21.40;43.50
29939;DHT22;16799;50.844;5.304;2023-02-07T12:43:32;21.60;41.30
29939;DHT22;16799;50.844;5.304;2023-02-07T12:49:03;20.30;42.20
29939;DHT22;16799;50.844;5.304;2023-02-07T12:55:11;20.80;41.10
29939;DHT22;16799;50.844;5.304;2023-02-07T13:11:33;22.70;40.50
29939;DHT22;16799;50.844;5.304;2023-02-07T13:19:38;23.40;38.20
29939;DHT22;16799;50.844;5.304;2023-02-07T13:22:26;23.00;37.30
29939;DHT22;16799;50.844;5.304;2023-02-07T13:24:54;23.30;38.80
29939;DHT22;16799;50.844;5.304;2023-02-07T13:27:21;23.00;38.10
29939;DHT22;16799;50.844;5.304;2023-02-07T13:29:48;23.40;40.30
29939;DHT22;16799;50.844;5.304;2023-02-07T13:32:20;23.80;38.60
29939;DHT22;16799;50.844;5.304;2023-02-07T13:37:23;22.10;37.70
29939;DHT22;16799;50.844;5.304;2023-02-07T13:40:00;21.90;38.50
29939;DHT22;16799;50.844;5.304;2023-02-07T13:42:46;21.50;37.10
29939;DHT22;16799;50.844;5.304;2023-02-07T13:48:05;18.10;42.10
29939;DHT22;16799;50.844;5.304;2023-02-07T13:53:37;14.30;49.10
29939;DHT22;16799;50.844;5.304;2023-02-07T13:56:12;13.00;50.00
29939;DHT22;16799;50.844;5.304;2023-02-07T13:58:57;12.10;54.40
29939;DHT22;16799;50.844;5.304;2023-02-07T14:01:56;11.30;58.90
29939;DHT22;16799;50.844;5.304;2023-02-07T14:04:22;10.50;60.70
29939;DHT22;16799;50.844;5.304;2023-02-07T14:06:59;10.10;63.80
29939;DHT22;16799;50.844;5.304;2023-02-07T14:12:20;9.80;73.20
29939;DHT22;16799;50.844;5.304;2023-02-07T14:14:47;9.50;69.90
29939;DHT22;16799;50.844;5.304;2023-02-07T14:17:54;9.40;72.70
29939;DHT22;16799;50.844;5.304;2023-02-07T14:23:16;9.00;74.00
29939;DHT22;16799;50.844;5.304;2023-02-07T14:25:43;8.80;74.20
29939;DHT22;16799;50.844;5.304;2023-02-07T14:28:31;8.80;76.00
29939;DHT22;16799;50.844;5.304;2023-02-07T14:31:00;8.70;75.90
29939;DHT22;16799;50.844;5.304;2023-02-07T14:33:37;8.50;77.00
29939;DHT22;16799;50.844;5.304;2023-02-07T14:38:38;8.40;80.80
29939;DHT22;16799;50.844;5.304;2023-02-07T14:41:08;8.50;83.30
29939;DHT22;16799;50.844;5.304;2023-02-07T14:43:52;8.60;81.40
29939;DHT22;16799;50.844;5.304;2023-02-07T14:46:31;8.30;78.70
29939;DHT22;16799;50.844;5.304;2023-02-07T14:49:12;8.00;79.30
29939;DHT22;16799;50.844;5.304;2023-02-07T14:52:12;8.00;83.60
29939;DHT22;16799;50.844;5.304;2023-02-07T14:57:32;7.90;83.80
29939;DHT22;16799;50.844;5.304;2023-02-07T15:02:40;8.10;82.40
29939;DHT22;16799;50.844;5.304;2023-02-07T15:07:45;8.10;79.80
29939;DHT22;16799;50.844;5.304;2023-02-07T15:13:05;8.00;83.70
29939;DHT22;16799;50.844;5.304;2023-02-07T15:15:46;8.10;82.60
29939;DHT22;16799;50.844;5.304;2023-02-07T15:18:15;7.90;84.70
29939;DHT22;16799;50.844;5.304;2023-02-07T15:20:48;7.90;83.40
29939;DHT22;16799;50.844;5.304;2023-02-07T15:23:14;7.80;84.60
29939;DHT22;16799;50.844;5.304;2023-02-07T15:25:42;7.70;85.40
29939;DHT22;16799;50.844;5.304;2023-02-07T15:28:34;7.70;84.00
29939;DHT22;16799;50.844;5.304;2023-02-07T15:31:15;7.60;86.00
29939;DHT22;16799;50.844;5.304;2023-02-07T15:33:52;7.70;86.60
29939;DHT22;16799;50.844;5.304;2023-02-07T15:38:51;7.60;88.40
29939;DHT22;16799;50.844;5.304;2023-02-07T15:41:16;7.50;90.20
29939;DHT22;16799;50.844;5.304;2023-02-07T15:46:49;7.50;87.50
29939;DHT22;16799;50.844;5.304;2023-02-07T15:49:34;7.30;87.70
29939;DHT22;16799;50.844;5.304;2023-02-07T15:52:05;7.40;87.20
29939;DHT22;16799;50.844;5.304;2023-02-07T15:54:37;7.20;85.50
29939;DHT22;16799;50.844;5.304;2023-02-07T15:57:03;7.00;86.60
29939;DHT22;16799;50.844;5.304;2023-02-07T15:59:31;7.00;89.70
29939;DHT22;16799;50.844;5.304;2023-02-07T16:01:59;6.90;90.00
29939;DHT22;16799;50.844;5.304;2023-02-07T16:04:28;6.90;89.40
29939;DHT22;16799;50.844;5.304;2023-02-07T16:07:05;7.00;89.40
29939;DHT22;16799;50.844;5.304;2023-02-07T16:09:40;7.10;89.40
29939;DHT22;16799;50.844;5.304;2023-02-07T16:12:45;6.90;88.30
29939;DHT22;16799;50.844;5.304;2023-02-07T16:17:56;6.50;90.70
29939;DHT22;16799;50.844;5.304;2023-02-07T16:20:24;6.40;91.60
29939;DHT22;16799;50.844;5.304;2023-02-07T16:22:50;6.40;92.20
29939;DHT22;16799;50.844;5.304;2023-02-07T16:25:21;6.20;92.40
29939;DHT22;16799;50.844;5.304;2023-02-07T16:27:50;6.30;92.60
29939;DHT22;16799;50.844;5.304;2023-02-07T16:30:24;6.20;92.80
29939;DHT22;16799;50.844;5.304;2023-02-07T16:32:52;6.10;92.50
29939;DHT22;16799;50.844;5.304;2023-02-07T16:35:24;5.90;92.80
29939;DHT22;16799;50.844;5.304;2023-02-07T16:37:50;5.90;93.60
29939;DHT22;16799;50.844;5.304;2023-02-07T16:40:16;5.80;94.20
29939;DHT22;16799;50.844;5.304;2023-02-07T16:42:43;5.70;94.40
29939;DHT22;16799;50.844;5.304;2023-02-07T16:45:16;5.70;94.90
29939;DHT22;16799;50.844;5.304;2023-02-07T16:47:42;5.70;95.20
29939;DHT22;16799;50.844;5.304;2023-02-07T16:50:25;5.60;95.20
29939;DHT22;16799;50.844;5.304;2023-02-07T16:52:52;5.70;95.60
29939;DHT22;16799;50.844;5.304;2023-02-07T16:55:22;5.60;96.30
29939;DHT22;16799;50.844;5.304;2023-02-07T16:57:49;5.50;96.10
29939;DHT22;16799;50.844;5.304;2023-02-07T17:00:19;5.40;96.20
29939;DHT22;16799;50.844;5.304;2023-02-07T17:02:47;5.30;96.20
29939;DHT22;16799;50.844;5.304;2023-02-07T17:05:18;5.20;96.70
29939;DHT22;16799;50.844;5.304;2023-02-07T17:07:44;5.10;97.60
29939;DHT22;16799;50.844;5.304;2023-02-07T17:10:29;5.00;98.20
29939;DHT22;16799;50.844;5.304;2023-02-07T17:12:56;5.10;98.30
29939;DHT22;16799;50.844;5.304;2023-02-07T17:15:22;5.10;98.00
29939;DHT22;16799;50.844;5.304;2023-02-07T17:17:47;5.10;97.80
29939;DHT22;16799;50.844;5.304;2023-02-07T17:20:23;5.00;97.90
29939;DHT22;16799;50.844;5.304;2023-02-07T17:22:50;4.90;98.30
29939;DHT22;16799;50.844;5.304;2023-02-07T17:25:17;4.70;98.50
29939;DHT22;16799;50.844;5.304;2023-02-07T17:27:42;4.60;98.70
29939;DHT22;16799;50.844;5.304;2023-02-07T17:30:17;4.50;99.10
29939;DHT22;16799;50.844;5.304;2023-02-07T17:32:44;4.40;99.10
29939;DHT22;16799;50.844;5.304;2023-02-07T17:35:10;4.30;99.50
29939;DHT22;16799;50.844;5.304;2023-02-07T17:37:35;4.30;99.50
29939;DHT22;16799;50.844;5.304;2023-02-07T17:40:01;4.30;99.90
29939;DHT22;16799;50.844;5.304;2023-02-07T17:42:27;4.40;99.90
29939;DHT22;16799;50.844;5.304;2023-02-07T17:44:53;4.30;99.90
29939;DHT22;16799;50.844;5.304;2023-02-07T17:47:18;4.30;99.90
29939;DHT22;16799;50.844;5.304;2023-02-07T17:49:44;4.30;99.90
29939;DHT22;16799;50.844;5.304;2023-02-07T17:52:09;4.20;99.60
29939;DHT22;16799;50.844;5.304;2023-02-07T17:54:38;4.10;99.90
29939;DHT22;16799;50.844;5.304;2023-02-07T17:57:11;4.10;99.70
29939;DHT22;16799;50.844;5.304;2023-02-07T17:59:36;4.00;99.50
29939;DHT22;16799;50.844;5.304;2023-02-07T18:02:02;4.00;99.70
29939;DHT22;16799;50.844;5.304;2023-02-07T18:04:28;4.10;99.00
29939;DHT22;16799;50.844;5.304;2023-02-07T18:06:54;4.00;98.70
29939;DHT22;16799;50.844;5.304;2023-02-07T18:09:20;3.80;99.70
29939;DHT22;16799;50.844;5.304;2023-02-07T18:11:46;3.70;99.90
29939;DHT22;16799;50.844;5.304;2023-02-07T18:14:12;3.60;99.90
29939;DHT22;16799;50.844;5.304;2023-02-07T18:16:38;3.50;99.90
29939;DHT22;16799;50.844;5.304;2023-02-07T18:19:04;3.50;99.90